Hanlontown, IA (50444)

7:39 AM CST on November 23, 2014 (GMT -0600)
Bruns Bros. Farms | Change Station
CLOSE
Current Station
Personal Weather Station
Location: Hanlontown, IA
Elevation: 1207 ft
Nearby Weather Stations

Elev 1207 ft 43.27 °N, 93.41 °W | Updated 10 minutes ago

Overcast
Overcast
49.3 °F
Feels Like 44 °F
N
16.1
Wind Variable Wind from SW

Today
High -- | Low -- °F
--% Chance of Precip.
Yesterday
High -- | Low -- °F
Precip. -- in
7:16 AM 4:42 PM
New Moon, 1% visible
Pressure 29.51 in
Visibility 5.0 miles
Clouds Overcast 400 ft
Windchill 44 °F
Dew Point 48 °F
Humidity 97%
Rainfall 0.00 in
Snow Depth Not available.
UV 0 out of 12
Pollen .10 out of 12
Air Quality Not available.
Flu Activity Not available.
SPECI KMCW 231325Z AUTO 18010KT 5SM BR OVC004 10/09 A2951 RMK AO2 T01000094

More Conditions Fewer Conditions

Pressure 29.51 in
Visibility 5.0 miles
Clouds Overcast 400 ft
Windchill 44 °F
Dew Point 48 °F
Humidity 97%
Rainfall 0.00 in
Snow Depth Not available.
UV 0 out of 12
Pollen .10 out of 12
Air Quality Not available.
Flu Activity Not available.
SPECI KMCW 231325Z AUTO 18010KT 5SM BR OVC004 10/09 A2951 RMK AO2 T01000094

More Conditions Fewer Conditions

10-Day Weather Forecast

Almanac

Astronomy

Nov. 23, 2014 Rise Set
Actual Time
Civil Twilight
Nautical Twilight
Astronomical Twilight
Moon
Length of Visible Light
Length of Day
Tomorrow will be .
, % of the Moon is Illuminated

Today's Extremes

State Highs State Lows

Community

WunderPhotos

Upload Photos

1,773,057 photos uploaded!

WunderBlogs® & News

Nearby

Air Quality

  Air Quality AQ Index Pollutant
Not available.

Snow Depth

Station Depth Elevation

Earthquake Activity

City Distance Mag. Time & Date
Minimum magnitude displayed is 2.5.

Coastal Water Temperatures

Place Temperature

Nearby Weather Stations